createdAt,value
2023-10-05T00:02:10.299Z,21.07
2023-10-05T00:04:43.787Z,21.08
2023-10-05T00:07:27.644Z,21.09
2023-10-05T00:09:57.862Z,21.08
2023-10-05T00:12:25.119Z,21.07
2023-10-05T00:15:10.073Z,21.04
2023-10-05T00:17:40.671Z,21.04
2023-10-05T00:20:34.765Z,21.04
2023-10-05T00:23:06.634Z,21.04
2023-10-05T00:25:34.170Z,21.03
2023-10-05T00:28:06.120Z,21.03
2023-10-05T00:30:34.529Z,21.05
2023-10-05T00:33:01.766Z,21.02
2023-10-05T00:35:30.713Z,21.03
2023-10-05T00:38:00.925Z,21.05
2023-10-05T00:40:37.507Z,21.01
2023-10-05T00:43:13.592Z,21.05
2023-10-05T00:45:47.581Z,21.01
2023-10-05T00:48:30.170Z,21.01
2023-10-05T00:51:01.854Z,20.98
2023-10-05T00:53:30.464Z,20.99
2023-10-05T00:56:09.309Z,20.95
2023-10-05T00:58:45.226Z,21.01
2023-10-05T01:01:16.984Z,20.98
2023-10-05T01:04:00.754Z,21.00
2023-10-05T01:06:56.071Z,20.98
2023-10-05T01:09:32.699Z,20.99
2023-10-05T01:12:12.372Z,20.97
2023-10-05T01:14:46.232Z,20.96
2023-10-05T01:17:13.637Z,20.99
2023-10-05T01:19:40.891Z,20.99
2023-10-05T01:22:13.945Z,20.96
2023-10-05T01:24:42.734Z,20.98
2023-10-05T01:27:12.321Z,20.99
2023-10-05T01:29:39.647Z,20.96
2023-10-05T01:32:08.355Z,20.94
2023-10-05T01:34:35.903Z,20.97
2023-10-05T01:37:04.364Z,20.96
2023-10-05T01:39:36.272Z,20.93
2023-10-05T01:42:07.098Z,20.93
2023-10-05T01:44:38.560Z,20.97
2023-10-05T01:47:06.338Z,20.96
2023-10-05T01:49:33.655Z,20.97
2023-10-05T01:52:00.911Z,20.98
2023-10-05T01:54:29.594Z,20.96
2023-10-05T01:56:57.180Z,20.99
2023-10-05T01:59:25.620Z,20.94
2023-10-05T02:01:54.893Z,20.96
2023-10-05T02:04:23.498Z,20.94
2023-10-05T02:06:51.004Z,20.94
2023-10-05T02:09:20.991Z,20.96
2023-10-05T02:11:48.931Z,20.94
2023-10-05T02:14:17.562Z,20.92
2023-10-05T02:16:51.046Z,20.95
2023-10-05T02:19:20.239Z,20.93
2023-10-05T02:21:47.606Z,20.98
2023-10-05T02:24:18.579Z,20.93
2023-10-05T02:27:02.323Z,20.95
2023-10-05T02:29:31.516Z,20.93
2023-10-05T02:32:02.000Z,20.92
2023-10-05T02:34:39.668Z,20.92
2023-10-05T02:37:08.853Z,20.91
2023-10-05T02:39:38.842Z,20.94
2023-10-05T02:42:13.472Z,20.90
2023-10-05T02:44:41.387Z,20.91
2023-10-05T02:47:15.854Z,20.91
2023-10-05T02:49:48.892Z,20.92
2023-10-05T02:52:17.844Z,20.91
2023-10-05T02:54:45.206Z,20.95
2023-10-05T02:57:15.502Z,20.92
2023-10-05T02:59:43.121Z,20.91
2023-10-05T03:02:17.821Z,20.92
2023-10-05T03:04:46.642Z,20.88
2023-10-05T03:07:16.305Z,20.92
2023-10-05T03:09:44.461Z,20.88
2023-10-05T03:12:12.498Z,20.91
2023-10-05T03:14:45.959Z,20.91
2023-10-05T03:17:20.370Z,20.90
2023-10-05T03:19:47.709Z,20.89
2023-10-05T03:22:17.099Z,20.89
2023-10-05T03:24:48.309Z,20.87
2023-10-05T03:27:15.785Z,20.92
2023-10-05T03:29:47.061Z,20.88
2023-10-05T03:32:15.122Z,20.93
2023-10-05T03:34:57.680Z,20.89
2023-10-05T03:37:25.665Z,20.92
2023-10-05T03:40:05.214Z,20.90
2023-10-05T03:42:32.442Z,20.90
2023-10-05T03:45:09.943Z,20.88
2023-10-05T03:47:40.425Z,20.87
2023-10-05T03:50:30.965Z,20.85
2023-10-05T03:52:58.480Z,20.85
2023-10-05T03:55:26.137Z,20.89
2023-10-05T03:57:54.205Z,20.84
2023-10-05T04:00:25.188Z,20.84
2023-10-05T04:02:58.327Z,20.90
2023-10-05T04:05:26.293Z,20.87
2023-10-05T04:07:54.221Z,20.83
2023-10-05T04:10:24.553Z,20.88
2023-10-05T04:12:56.246Z,20.89
2023-10-05T04:15:24.245Z,20.85
2023-10-05T04:17:51.591Z,20.84
2023-10-05T04:20:23.102Z,20.84
2023-10-05T04:22:50.808Z,20.86
2023-10-05T04:25:18.302Z,20.87
2023-10-05T04:27:47.837Z,20.84
2023-10-05T04:30:19.138Z,20.85
2023-10-05T04:32:47.092Z,20.87
2023-10-05T04:35:24.637Z,20.85
2023-10-05T04:37:52.701Z,20.84
2023-10-05T04:40:21.606Z,20.82
2023-10-05T04:42:48.821Z,20.88
2023-10-05T04:45:16.027Z,20.86
2023-10-05T04:47:43.298Z,20.84
2023-10-05T04:50:16.431Z,20.83
2023-10-05T04:52:46.592Z,20.84
2023-10-05T04:55:24.163Z,20.81
2023-10-05T04:57:53.647Z,20.83
2023-10-05T05:00:39.606Z,20.86
2023-10-05T05:03:18.375Z,20.87
2023-10-05T05:06:02.102Z,20.87
2023-10-05T05:08:29.850Z,20.86
2023-10-05T05:10:58.511Z,20.83
2023-10-05T05:13:28.843Z,20.83
2023-10-05T05:15:56.279Z,20.85
2023-10-05T05:18:23.565Z,20.85
2023-10-05T05:20:50.984Z,20.86
2023-10-05T05:23:19.621Z,20.84
2023-10-05T05:25:53.028Z,20.72
2023-10-05T05:28:20.296Z,20.69
2023-10-05T05:30:48.311Z,20.64
2023-10-05T05:33:17.986Z,20.62
2023-10-05T05:35:46.070Z,20.61
2023-10-05T05:38:13.338Z,20.54
2023-10-05T05:40:40.939Z,20.55
2023-10-05T05:43:12.638Z,20.57
2023-10-05T05:45:44.905Z,20.53
2023-10-05T05:48:15.526Z,20.53
2023-10-05T05:50:43.884Z,20.52
2023-10-05T05:53:15.292Z,20.48
2023-10-05T05:55:46.025Z,20.48
2023-10-05T05:58:18.052Z,20.49
2023-10-05T06:00:48.615Z,20.51
2023-10-05T06:03:17.566Z,20.46
2023-10-05T06:05:44.865Z,20.47
2023-10-05T06:08:12.707Z,20.45
2023-10-05T06:10:39.928Z,20.48
2023-10-05T06:13:07.618Z,20.44
2023-10-05T06:15:36.138Z,20.46
2023-10-05T06:18:04.127Z,20.47
2023-10-05T06:20:33.116Z,20.47
2023-10-05T06:23:01.508Z,20.46
2023-10-05T06:25:29.223Z,20.51
2023-10-05T06:27:56.600Z,20.54
2023-10-05T06:30:23.970Z,20.55
2023-10-05T06:32:51.278Z,20.58
2023-10-05T06:35:19.260Z,20.67
2023-10-05T06:37:46.852Z,20.70
2023-10-05T06:40:15.205Z,20.76
2023-10-05T06:42:45.717Z,20.80
2023-10-05T06:45:16.426Z,20.81
2023-10-05T06:47:44.440Z,20.85
2023-10-05T06:50:12.222Z,20.83
2023-10-05T06:52:40.997Z,20.85
2023-10-05T06:55:10.010Z,20.86
2023-10-05T06:57:37.937Z,20.86
2023-10-05T07:00:18.561Z,20.89
2023-10-05T07:02:46.664Z,20.93
2023-10-05T07:05:14.437Z,20.90
2023-10-05T07:07:44.305Z,20.93
2023-10-05T07:10:14.926Z,20.92
2023-10-05T07:12:43.231Z,20.93
2023-10-05T07:15:11.780Z,20.96
2023-10-05T07:17:39.023Z,20.98
2023-10-05T07:20:12.238Z,21.04
2023-10-05T07:22:42.729Z,21.09
2023-10-05T07:25:12.105Z,21.13
2023-10-05T07:27:40.110Z,21.15
2023-10-05T07:30:09.990Z,21.20
2023-10-05T07:32:37.362Z,21.50
2023-10-05T07:35:08.520Z,21.58
2023-10-05T07:37:36.905Z,21.63
2023-10-05T07:40:05.603Z,21.88
2023-10-05T07:42:32.951Z,22.22
2023-10-05T07:45:00.536Z,21.73
2023-10-05T07:47:27.871Z,21.68
2023-10-05T07:49:56.513Z,21.80
2023-10-05T07:52:24.137Z,21.93
2023-10-05T07:54:52.962Z,23.14
2023-10-05T07:57:20.219Z,23.27
2023-10-05T07:59:47.433Z,24.91
2023-10-05T08:02:19.390Z,24.99
2023-10-05T08:04:49.147Z,24.66
2023-10-05T08:07:16.910Z,24.60
2023-10-05T08:09:46.254Z,24.46
2023-10-05T08:12:13.982Z,24.32
2023-10-05T08:14:41.280Z,24.11
2023-10-05T08:17:08.757Z,23.90
2023-10-05T08:19:36.692Z,23.73
2023-10-05T08:22:03.964Z,23.58
2023-10-05T08:24:35.409Z,23.42
2023-10-05T08:27:03.494Z,23.14
2023-10-05T08:29:30.929Z,22.95
2023-10-05T08:31:59.116Z,22.82
2023-10-05T08:34:26.624Z,22.68
2023-10-05T08:36:54.885Z,22.79
2023-10-05T08:39:28.018Z,22.86
2023-10-05T08:42:08.019Z,22.86
2023-10-05T08:44:43.477Z,22.72
2023-10-05T08:47:13.757Z,22.62
2023-10-05T08:49:46.950Z,22.64
2023-10-05T08:52:20.581Z,22.68
2023-10-05T08:54:48.639Z,22.68
2023-10-05T08:57:18.062Z,22.66
2023-10-05T08:59:48.498Z,22.63
2023-10-05T09:02:23.049Z,22.69
2023-10-05T09:05:01.181Z,22.68
2023-10-05T09:07:37.052Z,22.69
2023-10-05T09:10:09.724Z,22.73
2023-10-05T09:12:38.824Z,22.67
2023-10-05T09:15:10.015Z,22.71
2023-10-05T09:17:37.757Z,22.72
2023-10-05T09:20:24.213Z,22.72
2023-10-05T09:22:57.198Z,22.74
2023-10-05T09:25:30.400Z,22.76
2023-10-05T09:28:00.236Z,22.73
2023-10-05T09:30:30.500Z,22.82
2023-10-05T09:33:08.435Z,22.83
2023-10-05T09:35:35.860Z,22.76
2023-10-05T09:38:04.245Z,22.68
2023-10-05T09:40:32.738Z,22.63
2023-10-05T09:43:09.733Z,22.58
2023-10-05T09:45:37.354Z,22.53
2023-10-05T09:48:05.579Z,22.51
2023-10-05T09:50:32.993Z,22.50
2023-10-05T09:53:00.603Z,22.51
2023-10-05T09:55:31.001Z,22.61
2023-10-05T09:58:07.124Z,22.61
2023-10-05T10:00:40.406Z,22.55
2023-10-05T10:03:07.924Z,22.49
2023-10-05T10:08:14.447Z,22.40
2023-10-05T10:11:03.334Z,22.40
2023-10-05T10:13:38.544Z,22.38
2023-10-05T10:16:25.123Z,22.39
2023-10-05T10:19:08.621Z,22.37
2023-10-05T10:21:47.480Z,22.37
2023-10-05T10:24:21.632Z,22.35
2023-10-05T10:27:13.892Z,22.32
2023-10-05T10:29:44.833Z,22.32
2023-10-05T10:32:20.308Z,22.31
2023-10-05T10:34:53.102Z,22.31
2023-10-05T10:37:45.772Z,22.31
2023-10-05T10:40:20.509Z,22.30
2023-10-05T10:43:04.874Z,22.27
2023-10-05T10:45:42.693Z,22.24
2023-10-05T10:48:21.254Z,22.22
2023-10-05T10:50:54.257Z,22.23
2023-10-05T10:53:26.705Z,22.20
2023-10-05T10:56:05.138Z,22.17
2023-10-05T10:58:34.075Z,22.15
2023-10-05T11:01:14.671Z,22.13
2023-10-05T11:03:42.970Z,22.09
2023-10-05T11:06:16.562Z,22.07
2023-10-05T11:08:52.934Z,22.07
2023-10-05T11:11:24.507Z,22.07
2023-10-05T11:13:57.801Z,22.06
2023-10-05T11:16:46.929Z,22.04
2023-10-05T11:19:30.461Z,22.02
2023-10-05T11:22:05.968Z,22.03
2023-10-05T11:24:33.848Z,22.01
2023-10-05T11:27:07.200Z,21.99
2023-10-05T11:29:49.267Z,21.98
2023-10-05T11:32:43.955Z,21.97
2023-10-05T11:35:19.719Z,21.94
2023-10-05T11:38:00.277Z,21.94
2023-10-05T11:40:33.199Z,21.91
2023-10-05T11:43:06.052Z,21.90
2023-10-05T11:45:35.654Z,21.91
2023-10-05T11:48:12.840Z,21.95
2023-10-05T11:50:55.921Z,21.91
2023-10-05T11:53:25.195Z,21.89
2023-10-05T11:55:52.876Z,21.88
2023-10-05T11:58:21.256Z,21.87
2023-10-05T12:00:48.466Z,21.85
2023-10-05T12:03:17.518Z,21.85
2023-10-05T12:05:45.047Z,21.84
2023-10-05T12:08:13.869Z,21.83
2023-10-05T12:10:41.652Z,21.84
2023-10-05T12:13:09.110Z,21.85
2023-10-05T12:15:38.147Z,21.86
2023-10-05T12:18:14.020Z,21.83
2023-10-05T12:20:42.692Z,21.82
2023-10-05T12:23:18.177Z,21.81
2023-10-05T12:25:46.584Z,21.81
2023-10-05T12:28:15.099Z,21.79
2023-10-05T12:30:47.027Z,21.76
2023-10-05T12:33:16.125Z,21.78
2023-10-05T12:35:46.174Z,21.77
2023-10-05T12:38:14.651Z,21.77
2023-10-05T12:40:48.865Z,21.76
2023-10-05T12:43:18.702Z,21.75
2023-10-05T12:45:46.645Z,21.79
2023-10-05T12:48:14.292Z,21.79
2023-10-05T12:50:42.280Z,21.79
2023-10-05T12:53:09.814Z,21.78
2023-10-05T12:55:38.727Z,21.79
2023-10-05T12:58:09.918Z,21.76
2023-10-05T13:00:41.607Z,21.76
2023-10-05T13:03:13.203Z,21.74
2023-10-05T13:05:44.585Z,21.78
2023-10-05T13:08:12.947Z,21.75
2023-10-05T13:10:43.411Z,21.73
2023-10-05T13:13:18.234Z,21.71
2023-10-05T13:15:46.624Z,21.71
2023-10-05T13:18:18.890Z,21.71
2023-10-05T13:20:48.911Z,21.70
2023-10-05T13:23:20.112Z,21.69
2023-10-05T13:25:50.784Z,21.68
2023-10-05T13:28:20.141Z,21.67
2023-10-05T13:30:48.363Z,21.67
2023-10-05T13:33:22.760Z,21.64
2023-10-05T13:35:53.404Z,21.63
2023-10-05T13:38:28.290Z,21.66
2023-10-05T13:41:02.941Z,21.66
2023-10-05T13:43:31.718Z,21.63
2023-10-05T13:46:05.748Z,21.65
2023-10-05T13:48:35.669Z,21.62
2023-10-05T13:51:04.457Z,21.61
2023-10-05T13:53:35.691Z,21.60
2023-10-05T13:56:02.977Z,21.59
2023-10-05T13:58:33.053Z,21.58
2023-10-05T14:01:02.479Z,21.57
2023-10-05T14:03:33.156Z,21.55
2023-10-05T14:06:05.756Z,21.55
2023-10-05T14:08:34.247Z,21.53
2023-10-05T14:11:02.832Z,21.53
2023-10-05T14:13:30.563Z,21.52
2023-10-05T14:16:02.182Z,21.51
2023-10-05T14:18:30.061Z,21.50
2023-10-05T14:20:57.271Z,21.49
2023-10-05T14:23:26.112Z,21.48
2023-10-05T14:25:53.294Z,21.46
2023-10-05T14:28:24.735Z,21.46
2023-10-05T14:30:52.769Z,21.44
2023-10-05T14:33:24.111Z,21.46
2023-10-05T14:35:51.923Z,21.44
2023-10-05T14:38:20.284Z,21.43
2023-10-05T14:40:53.395Z,21.46
2023-10-05T14:43:33.175Z,21.45
2023-10-05T14:46:01.481Z,21.43
2023-10-05T14:48:32.280Z,21.42
2023-10-05T14:51:04.911Z,21.40
2023-10-05T14:53:33.053Z,21.40
2023-10-05T14:56:00.487Z,21.42
2023-10-05T14:58:28.281Z,21.42
2023-10-05T15:00:57.611Z,21.47
2023-10-05T15:03:26.203Z,21.48
2023-10-05T15:05:53.852Z,21.42
2023-10-05T15:08:21.248Z,21.42
2023-10-05T15:10:48.605Z,21.39
2023-10-05T15:13:16.233Z,21.42
2023-10-05T15:15:44.418Z,21.40
2023-10-05T15:18:12.218Z,21.38
2023-10-05T15:20:41.316Z,21.37
2023-10-05T15:23:10.521Z,21.38
2023-10-05T15:25:41.381Z,21.40
2023-10-05T15:28:13.914Z,21.36
2023-10-05T15:30:41.495Z,21.35
2023-10-05T15:33:08.916Z,21.35
2023-10-05T15:35:36.294Z,21.32
2023-10-05T15:38:07.249Z,21.32
2023-10-05T15:40:36.805Z,21.31
2023-10-05T15:43:06.850Z,21.32
2023-10-05T15:45:35.878Z,21.30
2023-10-05T15:48:13.700Z,21.30
2023-10-05T15:50:41.115Z,21.28
2023-10-05T15:53:10.880Z,21.27
2023-10-05T15:55:38.234Z,21.27
2023-10-05T15:58:10.657Z,21.28
2023-10-05T16:00:38.149Z,21.27
2023-10-05T16:03:06.535Z,21.25
2023-10-05T16:05:41.189Z,21.24
2023-10-05T16:08:09.509Z,21.24
2023-10-05T16:10:39.384Z,21.24
2023-10-05T16:13:09.131Z,21.21
2023-10-05T16:15:38.343Z,21.23
2023-10-05T16:18:05.833Z,21.20
2023-10-05T16:20:38.522Z,21.20
2023-10-05T16:23:07.640Z,21.21
2023-10-05T16:25:35.672Z,21.20
2023-10-05T16:28:03.687Z,21.18
2023-10-05T16:30:31.671Z,21.21
2023-10-05T16:32:59.345Z,21.18
2023-10-05T16:35:26.764Z,21.17
2023-10-05T16:37:55.368Z,21.17
2023-10-05T16:40:26.124Z,21.16
2023-10-05T16:42:54.137Z,21.14
2023-10-05T16:45:22.644Z,21.15
2023-10-05T16:47:51.582Z,21.14
2023-10-05T16:50:20.450Z,21.14
2023-10-05T16:52:49.200Z,21.13
2023-10-05T16:55:19.473Z,21.12
2023-10-05T16:57:46.796Z,21.10
2023-10-05T17:00:17.848Z,21.13
2023-10-05T17:02:46.146Z,21.09
2023-10-05T17:05:17.800Z,21.09
2023-10-05T17:07:47.809Z,21.09
2023-10-05T17:10:15.726Z,21.10
2023-10-05T17:12:45.555Z,21.09
2023-10-05T17:15:13.491Z,21.08
2023-10-05T17:17:40.791Z,21.10
2023-10-05T17:20:08.260Z,21.09
2023-10-05T17:22:36.746Z,21.09
2023-10-05T17:25:04.403Z,21.07
2023-10-05T17:27:33.914Z,21.06
2023-10-05T17:30:02.386Z,21.08
2023-10-05T17:32:31.276Z,21.05
2023-10-05T17:34:58.639Z,21.08
2023-10-05T17:37:29.948Z,21.05
2023-10-05T17:39:58.224Z,21.05
2023-10-05T17:42:26.353Z,21.04
2023-10-05T17:44:54.011Z,21.03
2023-10-05T17:47:22.485Z,21.02
2023-10-05T17:49:52.283Z,21.02
2023-10-05T17:52:22.882Z,21.00
2023-10-05T17:54:50.085Z,21.02
2023-10-05T17:57:19.070Z,21.03
2023-10-05T17:59:48.675Z,21.06
2023-10-05T18:02:16.146Z,21.02
2023-10-05T18:04:44.338Z,21.02
2023-10-05T18:07:11.980Z,21.01
2023-10-05T18:09:39.368Z,20.99
2023-10-05T18:12:10.043Z,20.99
2023-10-05T18:14:37.648Z,21.00
2023-10-05T18:17:06.452Z,20.98
2023-10-05T18:19:34.026Z,21.00
2023-10-05T18:22:01.834Z,20.96
2023-10-05T18:24:29.280Z,20.95
2023-10-05T18:26:56.495Z,20.97
2023-10-05T18:29:23.663Z,20.98
2023-10-05T18:31:50.943Z,20.96
2023-10-05T18:34:18.233Z,20.98
2023-10-05T18:36:45.452Z,20.96
2023-10-05T18:39:16.988Z,20.95
2023-10-05T18:41:44.738Z,20.96
2023-10-05T18:44:12.599Z,20.93
2023-10-05T18:46:39.872Z,20.95
2023-10-05T18:49:08.006Z,20.94
2023-10-05T18:51:35.604Z,20.96
2023-10-05T18:54:02.859Z,20.94
2023-10-05T18:56:30.665Z,20.93
2023-10-05T18:58:59.088Z,20.92
2023-10-05T19:01:26.473Z,20.93
2023-10-05T19:03:54.107Z,20.91
2023-10-05T19:06:21.690Z,20.91
2023-10-05T19:08:48.976Z,20.92
2023-10-05T19:11:17.013Z,20.91
2023-10-05T19:13:45.211Z,20.89
2023-10-05T19:16:12.907Z,20.89
2023-10-05T19:18:40.240Z,20.89
2023-10-05T19:21:12.826Z,20.87
2023-10-05T19:23:43.186Z,20.87
2023-10-05T19:26:10.426Z,20.85
2023-10-05T19:28:37.763Z,20.89
2023-10-05T19:31:05.201Z,20.87
2023-10-05T19:33:32.823Z,20.87
2023-10-05T19:36:01.146Z,20.87
2023-10-05T19:38:28.453Z,20.88
2023-10-05T19:40:55.812Z,20.88
2023-10-05T19:43:23.334Z,20.85
2023-10-05T19:45:50.671Z,20.85
2023-10-05T19:48:18.106Z,20.82
2023-10-05T19:50:45.882Z,20.82
2023-10-05T19:53:14.153Z,20.85
2023-10-05T19:55:41.842Z,20.85
2023-10-05T19:58:09.083Z,20.86
2023-10-05T20:00:36.351Z,20.85
2023-10-05T20:03:04.206Z,20.86
2023-10-05T20:05:31.502Z,20.84
2023-10-05T20:07:58.916Z,20.83
2023-10-05T20:10:30.941Z,20.81
2023-10-05T20:12:58.586Z,20.81
2023-10-05T20:15:25.843Z,20.87
2023-10-05T20:17:53.153Z,20.90
2023-10-05T20:20:23.866Z,20.92
2023-10-05T20:22:51.674Z,20.92
2023-10-05T20:25:19.109Z,20.91
2023-10-05T20:27:46.345Z,20.93
2023-10-05T20:30:13.939Z,20.93
2023-10-05T20:32:41.200Z,20.92
2023-10-05T20:35:09.190Z,20.92
2023-10-05T20:37:36.614Z,20.92
2023-10-05T20:40:04.906Z,20.93
2023-10-05T20:42:32.306Z,20.93
2023-10-05T20:45:00.701Z,20.93
2023-10-05T20:47:32.934Z,20.93
2023-10-05T20:50:00.338Z,20.93
2023-10-05T20:52:27.727Z,20.94
2023-10-05T20:54:56.612Z,20.93
2023-10-05T20:57:23.874Z,20.92
2023-10-05T20:59:51.065Z,20.94
2023-10-05T21:02:18.360Z,20.93
2023-10-05T21:04:45.640Z,20.92
2023-10-05T21:07:12.966Z,20.92
2023-10-05T21:09:40.141Z,20.93
2023-10-05T21:12:07.675Z,20.91
2023-10-05T21:14:35.325Z,20.92
2023-10-05T21:17:03.144Z,20.90
2023-10-05T21:19:30.412Z,20.90
2023-10-05T21:21:57.672Z,20.91
2023-10-05T21:24:24.886Z,20.93
2023-10-05T21:26:52.351Z,20.88
2023-10-05T21:29:19.621Z,20.90
2023-10-05T21:31:46.822Z,20.90
2023-10-05T21:34:14.066Z,20.90
2023-10-05T21:36:41.302Z,20.88
2023-10-05T21:39:10.120Z,20.90
2023-10-05T21:41:37.310Z,20.89
2023-10-05T21:44:04.649Z,20.92
2023-10-05T21:46:31.933Z,20.87
2023-10-05T21:48:59.147Z,20.89
2023-10-05T21:51:26.385Z,20.89
2023-10-05T21:53:53.584Z,20.90
2023-10-05T21:56:20.759Z,20.89
2023-10-05T21:58:48.064Z,20.90
2023-10-05T22:01:15.668Z,20.88
2023-10-05T22:03:42.949Z,20.86
2023-10-05T22:06:10.259Z,20.87
2023-10-05T22:08:37.505Z,20.88
2023-10-05T22:11:04.860Z,20.88
2023-10-05T22:13:32.945Z,20.90
2023-10-05T22:16:00.325Z,20.88
2023-10-05T22:18:27.770Z,20.88
2023-10-05T22:20:55.117Z,20.87
2023-10-05T22:23:25.146Z,20.86
2023-10-05T22:25:52.482Z,20.88
2023-10-05T22:28:19.724Z,20.87
2023-10-05T22:30:46.930Z,20.87
2023-10-05T22:33:14.148Z,20.87
2023-10-05T22:35:41.590Z,20.87
2023-10-05T22:38:12.065Z,20.86
2023-10-05T22:40:40.360Z,20.84
2023-10-05T22:43:10.686Z,20.85
2023-10-05T22:45:38.161Z,20.84
2023-10-05T22:48:05.623Z,20.84
2023-10-05T22:50:36.788Z,20.84
2023-10-05T22:53:05.371Z,20.83
2023-10-05T22:55:32.661Z,20.85
2023-10-05T22:57:59.826Z,20.86
2023-10-05T23:00:27.008Z,20.83
2023-10-05T23:02:54.797Z,20.89
2023-10-05T23:05:22.280Z,20.88
2023-10-05T23:07:49.553Z,20.84
2023-10-05T23:10:16.880Z,20.85
2023-10-05T23:12:44.099Z,20.89
2023-10-05T23:15:11.536Z,20.88
2023-10-05T23:17:40.089Z,20.87
2023-10-05T23:20:13.610Z,20.86
2023-10-05T23:22:42.257Z,20.89
2023-10-05T23:25:22.845Z,20.87
2023-10-05T23:27:51.524Z,20.85
2023-10-05T23:30:20.035Z,20.84
2023-10-05T23:32:48.910Z,20.84
2023-10-05T23:35:17.095Z,20.86
2023-10-05T23:37:58.008Z,20.86
2023-10-05T23:40:26.855Z,20.83
2023-10-05T23:42:54.657Z,20.84
2023-10-05T23:45:22.420Z,20.86
2023-10-05T23:47:50.487Z,20.87
2023-10-05T23:50:29.977Z,20.84
2023-10-05T23:52:58.227Z,20.83
2023-10-05T23:55:26.304Z,20.84
2023-10-05T23:57:54.186Z,20.86
